Watertown, WI

6:53 AM CST on February 01, 2015 (GMT -0600)
Dane County Regional-Truax | Change Station
CLOSE
Current Station
Airport
Location: Madison,
Elevation: 866 ft
Nearby Weather Stations
Active Advisory: Winter Storm Warning

Elev 866 ft 43.14 °N, 89.35 °W | Updated 1 hour ago

Snow
Snow
16 °F
Feels Like 1 °F
N
16
Wind Variable Wind from NE

Today
High -- | Low -- °F
--% Chance of Precip.
Yesterday
High -- | Low -- °F
Precip. -- in
7:10 AM 5:06 PM
Waxing Gibbous, 95% visible
Pressure 30.11 in
Visibility 1.2 miles
Clouds Overcast 1900 ft
Windchill 1 °F
Dew Point 12 °F
Humidity 84%
Rainfall 0.14 in
Snow Depth Not available.
UV 0 out of 12
Pollen .10 out of 12
Air Quality Not available.
Flu Activity Not available.
METAR KMSN 011153Z 04014KT 1 1/4SM -SN BR OVC019 M09/M11 A3007 RMK AO2 SLP196 4/001 FIRST AUGMENTED OBS OF THE DAY P0004 60014 70027 T10891111 11033 21089 58012

More Conditions Fewer Conditions

Pressure 30.11 in
Visibility 1.2 miles
Clouds Overcast 1900 ft
Windchill 1 °F
Dew Point 12 °F
Humidity 84%
Rainfall 0.14 in
Snow Depth Not available.
UV 0 out of 12
Pollen .10 out of 12
Air Quality Not available.
Flu Activity Not available.
METAR KMSN 011153Z 04014KT 1 1/4SM -SN BR OVC019 M09/M11 A3007 RMK AO2 SLP196 4/001 FIRST AUGMENTED OBS OF THE DAY P0004 60014 70027 T10891111 11033 21089 58012

More Conditions Fewer Conditions

10-Day Weather Forecast

Almanac

Astronomy

Feb. 01, 2015 Rise Set
Actual Time
Civil Twilight
Nautical Twilight
Astronomical Twilight
Moon
Length of Visible Light
Length of Day
Tomorrow will be .
, % of the Moon is Illuminated

Today's Extremes

State Highs State Lows

Community

WunderPhotos

Upload Photos

1,792,353 photos uploaded!

WunderBlogs® & News

Nearby

Air Quality

  Air Quality AQ Index Pollutant
Not available.

Snow Depth

Station Depth Elevation

Earthquake Activity

City Distance Mag. Time & Date
Minimum magnitude displayed is 2.5.

Coastal Water Temperatures

Place Temperature

Nearby Weather Stations